createdAt,value
2022-08-31T00:00:33.977Z,97672.97
2022-08-31T00:03:20.095Z,97680.38
2022-08-31T00:05:47.669Z,97677.22
2022-08-31T00:08:15.832Z,97672.94
2022-08-31T00:10:46.417Z,97678.53
2022-08-31T00:13:14.364Z,97675.13
2022-08-31T00:15:43.292Z,97670.09
2022-08-31T00:18:11.164Z,97678.59
2022-08-31T00:20:38.450Z,97677.50
2022-08-31T00:23:11.731Z,97673.78
2022-08-31T00:25:42.469Z,97675.88
2022-08-31T00:28:10.829Z,97678.59
2022-08-31T00:30:39.161Z,97677.31
2022-08-31T00:33:06.696Z,97677.88
2022-08-31T00:35:36.820Z,97669.78
2022-08-31T00:38:06.598Z,97672.72
2022-08-31T00:40:44.375Z,97677.25
2022-08-31T00:43:39.392Z,97685.41
2022-08-31T00:46:09.483Z,97684.69
2022-08-31T00:48:51.713Z,97693.41
2022-08-31T00:51:19.578Z,97685.97
2022-08-31T00:53:49.714Z,97692.13
2022-08-31T00:56:20.152Z,97686.81
2022-08-31T00:58:48.910Z,97686.00
2022-08-31T01:01:22.900Z,97685.97
2022-08-31T01:03:50.630Z,97683.66
2022-08-31T01:06:18.930Z,97682.88
2022-08-31T01:08:47.291Z,97684.47
2022-08-31T01:11:16.101Z,97688.63
2022-08-31T01:13:45.112Z,97678.00
2022-08-31T01:16:36.590Z,97677.16
2022-08-31T01:19:11.532Z,97679.78
2022-08-31T01:22:11.888Z,97679.50
2022-08-31T01:24:44.668Z,97669.47
2022-08-31T01:27:15.216Z,97675.47
2022-08-31T01:29:42.400Z,97670.66
2022-08-31T01:32:09.803Z,97679.97
2022-08-31T01:34:37.296Z,97666.69
2022-08-31T01:37:05.132Z,97673.47
2022-08-31T01:39:32.682Z,97675.44
2022-08-31T01:42:00.032Z,97680.41
2022-08-31T01:44:28.319Z,97674.03
2022-08-31T01:46:56.969Z,97671.16
2022-08-31T01:49:24.677Z,97670.69
2022-08-31T01:51:53.964Z,97673.63
2022-08-31T01:54:23.925Z,97667.28
2022-08-31T01:56:51.460Z,97668.06
2022-08-31T01:59:28.117Z,97667.78
2022-08-31T02:01:59.998Z,97664.00
2022-08-31T02:04:29.253Z,97664.00
2022-08-31T02:07:01.060Z,97659.81
2022-08-31T02:09:30.131Z,97665.19
2022-08-31T02:11:59.271Z,97668.16
2022-08-31T02:14:26.901Z,97671.34
2022-08-31T02:16:54.763Z,97668.97
2022-08-31T02:19:22.083Z,97672.16
2022-08-31T02:21:49.570Z,97668.16
2022-08-31T02:24:17.766Z,97669.25
2022-08-31T02:26:45.040Z,97665.03
2022-08-31T02:29:12.533Z,97663.72
2022-08-31T02:31:40.123Z,97664.28
2022-08-31T02:34:07.572Z,97664.78
2022-08-31T02:36:35.956Z,97660.75
2022-08-31T02:39:05.913Z,97656.78
2022-08-31T02:41:34.522Z,97662.09
2022-08-31T02:44:02.548Z,97653.34
2022-08-31T02:46:30.182Z,97655.50
2022-08-31T02:49:17.988Z,97655.75
2022-08-31T02:51:45.428Z,97652.28
2022-08-31T02:54:12.980Z,97657.91
2022-08-31T02:56:41.504Z,97652.88
2022-08-31T02:59:09.608Z,97654.69
2022-08-31T03:01:38.173Z,97651.78
2022-08-31T03:04:05.973Z,97649.97
2022-08-31T03:06:33.479Z,97642.34
2022-08-31T03:09:02.768Z,97642.28
2022-08-31T03:11:30.630Z,97649.44
2022-08-31T03:13:58.883Z,97647.84
2022-08-31T03:16:26.848Z,97643.38
2022-08-31T03:18:54.160Z,97645.00
2022-08-31T03:21:21.411Z,97638.41
2022-08-31T03:23:48.684Z,97646.38
2022-08-31T03:26:16.272Z,97636.84
2022-08-31T03:28:43.677Z,97640.53
2022-08-31T03:31:31.252Z,97642.69
2022-08-31T03:33:59.274Z,97647.22
2022-08-31T03:36:26.824Z,97644.31
2022-08-31T03:38:54.195Z,97648.81
2022-08-31T03:41:25.684Z,97650.63
2022-08-31T03:43:53.296Z,97656.66
2022-08-31T03:46:20.939Z,97658.22
2022-08-31T03:48:48.652Z,97656.13
2022-08-31T03:51:18.136Z,97664.38
2022-08-31T03:53:46.091Z,97664.94
2022-08-31T03:56:18.649Z,97663.09
2022-08-31T03:58:47.175Z,97669.22
2022-08-31T04:01:32.482Z,97666.31
2022-08-31T04:04:18.382Z,97664.44
2022-08-31T04:07:04.258Z,97669.69
2022-08-31T04:09:51.260Z,97666.25
2022-08-31T04:12:38.646Z,97670.00
2022-08-31T04:15:12.271Z,97669.44
2022-08-31T04:18:06.620Z,97672.03
2022-08-31T04:20:48.358Z,97673.50
2022-08-31T04:23:15.783Z,97681.34
2022-08-31T04:25:48.209Z,97682.00
2022-08-31T04:28:16.276Z,97690.53
2022-08-31T04:30:45.575Z,97686.59
2022-08-31T04:33:16.795Z,97686.19
2022-08-31T04:35:44.802Z,97685.03
2022-08-31T04:38:12.484Z,97693.63
2022-08-31T04:40:44.100Z,97690.63
2022-08-31T04:43:11.974Z,97697.81
2022-08-31T04:45:44.669Z,97693.63
2022-08-31T04:48:14.903Z,97697.19
2022-08-31T04:50:43.367Z,97701.31
2022-08-31T04:53:11.083Z,97695.91
2022-08-31T04:55:42.847Z,97695.03
2022-08-31T04:58:13.907Z,97702.88
2022-08-31T05:00:44.101Z,97709.50
2022-08-31T05:03:44.446Z,97719.72
2022-08-31T05:06:17.565Z,97715.41
2022-08-31T05:08:45.283Z,97723.16
2022-08-31T05:11:16.730Z,97726.72
2022-08-31T05:13:45.171Z,97727.78
2022-08-31T05:16:16.371Z,97735.72
2022-08-31T05:18:48.180Z,97738.91
2022-08-31T05:21:28.447Z,97739.75
2022-08-31T05:24:09.521Z,97735.69
2022-08-31T05:26:47.275Z,97739.00
2022-08-31T05:29:18.233Z,97743.25
2022-08-31T05:31:51.524Z,97746.47
2022-08-31T05:34:21.880Z,97749.72
2022-08-31T05:36:56.269Z,97747.34
2022-08-31T05:39:24.645Z,97742.22
2022-08-31T05:41:52.348Z,97749.00
2022-08-31T05:44:21.285Z,97751.72
2022-08-31T05:46:57.335Z,97756.25
2022-08-31T05:49:32.137Z,97757.03
2022-08-31T05:52:05.466Z,97762.59
2022-08-31T05:54:35.903Z,97753.06
2022-08-31T05:57:04.103Z,97754.81
2022-08-31T05:59:32.161Z,97764.06
2022-08-31T06:02:02.380Z,97765.44
2022-08-31T06:04:34.060Z,97775.84
2022-08-31T06:07:01.893Z,97766.63
2022-08-31T06:09:38.613Z,97764.69
2022-08-31T06:12:08.930Z,97760.72
2022-08-31T06:14:36.554Z,97761.78
2022-08-31T06:17:04.296Z,97766.91
2022-08-31T06:19:32.286Z,97762.31
2022-08-31T06:22:00.258Z,97766.19
2022-08-31T06:24:28.858Z,97774.28
2022-08-31T06:26:59.595Z,97772.75
2022-08-31T06:29:34.830Z,97783.63
2022-08-31T06:32:08.289Z,97785.00
2022-08-31T06:34:40.098Z,97786.66
2022-08-31T06:37:19.044Z,97794.41
2022-08-31T06:40:16.046Z,97784.34
2022-08-31T06:42:57.449Z,97779.41
2022-08-31T06:45:50.667Z,97782.00
2022-08-31T06:48:35.196Z,97788.94
2022-08-31T06:51:03.466Z,97775.41
2022-08-31T06:53:31.189Z,97780.91
2022-08-31T06:56:25.244Z,97783.00
2022-08-31T06:59:12.333Z,97783.97
2022-08-31T07:02:01.922Z,97775.75
2022-08-31T07:04:39.436Z,97785.53
2022-08-31T07:07:11.468Z,97784.31
2022-08-31T07:09:42.279Z,97777.66
2022-08-31T07:12:11.376Z,97787.22
2022-08-31T07:14:39.071Z,97774.53
2022-08-31T07:17:08.408Z,97791.88
2022-08-31T07:19:36.167Z,97783.22
2022-08-31T07:22:09.295Z,97784.81
2022-08-31T07:24:42.680Z,97789.16
2022-08-31T07:27:16.624Z,97785.97
2022-08-31T07:30:00.372Z,97789.41
2022-08-31T07:32:32.363Z,97790.59
2022-08-31T07:35:01.133Z,97801.22
2022-08-31T07:37:50.196Z,97805.91
2022-08-31T07:40:39.313Z,97802.47
2022-08-31T07:43:10.041Z,97806.94
2022-08-31T07:45:39.386Z,97811.66
2022-08-31T07:48:07.706Z,97811.22
2022-08-31T07:50:57.905Z,97809.53
2022-08-31T07:53:56.096Z,97820.38
2022-08-31T07:56:25.940Z,97816.34
2022-08-31T07:59:10.987Z,97818.88
2022-08-31T08:01:41.389Z,97815.19
2022-08-31T08:04:13.272Z,97816.13
2022-08-31T08:07:00.850Z,97806.63
2022-08-31T08:09:47.731Z,97815.88
2022-08-31T08:12:37.788Z,97804.72
2022-08-31T08:15:12.816Z,97812.75
2022-08-31T08:17:56.474Z,97810.63
2022-08-31T08:20:37.876Z,97809.72
2022-08-31T08:23:14.374Z,97804.75
2022-08-31T08:26:07.273Z,97805.31
2022-08-31T08:28:57.729Z,97811.38
2022-08-31T08:31:26.090Z,97811.94
2022-08-31T08:33:53.516Z,97801.56
2022-08-31T08:36:21.232Z,97803.28
2022-08-31T08:38:54.116Z,97809.00
2022-08-31T08:43:58.976Z,97805.94
2022-08-31T08:46:40.334Z,97806.69
2022-08-31T08:49:21.142Z,97805.44
2022-08-31T08:51:53.754Z,97800.22
2022-08-31T08:54:38.942Z,97814.84
2022-08-31T08:57:17.492Z,97810.56
2022-08-31T08:59:49.560Z,97805.09
2022-08-31T09:02:25.182Z,97801.72
2022-08-31T09:05:04.437Z,97804.00
2022-08-31T09:08:16.570Z,97802.88
2022-08-31T09:11:17.662Z,97797.09
2022-08-31T09:14:25.020Z,97793.53
2022-08-31T09:18:00.295Z,97797.06
2022-08-31T09:20:28.889Z,97804.47
2022-08-31T09:22:58.649Z,97802.34
2022-08-31T09:25:37.503Z,97801.59
2022-08-31T09:28:39.003Z,97800.34
2022-08-31T09:31:06.944Z,97809.94
2022-08-31T09:33:46.852Z,97807.59
2022-08-31T09:36:22.931Z,97796.66
2022-08-31T09:38:50.758Z,97798.41
2022-08-31T09:41:32.866Z,97799.69
2022-08-31T09:44:41.466Z,97783.66
2022-08-31T09:47:52.124Z,97792.28
2022-08-31T09:50:45.232Z,97793.38
2022-08-31T09:53:46.517Z,97798.81
2022-08-31T09:56:22.405Z,97792.88
2022-08-31T09:58:52.740Z,97796.75
2022-08-31T10:01:45.776Z,97793.22
2022-08-31T10:04:28.535Z,97788.97
2022-08-31T10:07:25.065Z,97790.44
2022-08-31T10:10:16.022Z,97790.94
2022-08-31T10:13:18.211Z,97784.34
2022-08-31T10:16:30.540Z,97782.16
2022-08-31T10:19:20.330Z,97779.66
2022-08-31T10:22:00.151Z,97782.78
2022-08-31T10:24:48.653Z,97774.22
2022-08-31T10:27:20.704Z,97785.16
2022-08-31T10:30:06.832Z,97767.19
2022-08-31T10:32:56.478Z,97770.00
2022-08-31T10:35:52.715Z,97778.34
2022-08-31T10:38:30.826Z,97776.72
2022-08-31T10:41:16.532Z,97765.09
2022-08-31T10:44:01.697Z,97766.13
2022-08-31T10:46:35.711Z,97770.94
2022-08-31T10:49:04.942Z,97764.66
2022-08-31T10:52:17.553Z,97760.41
2022-08-31T10:55:23.687Z,97761.50
2022-08-31T10:58:20.049Z,97756.88
2022-08-31T11:01:13.153Z,97761.75
2022-08-31T11:04:20.064Z,97756.88
2022-08-31T11:06:55.647Z,97754.50
2022-08-31T11:09:33.649Z,97747.69
2022-08-31T11:12:18.510Z,97740.31
2022-08-31T11:15:09.698Z,97741.91
2022-08-31T11:17:50.258Z,97743.81
2022-08-31T11:20:47.723Z,97733.53
2022-08-31T11:23:30.002Z,97731.47
2022-08-31T11:27:04.973Z,97722.06
2022-08-31T11:29:56.930Z,97723.66
2022-08-31T11:32:51.037Z,97735.22
2022-08-31T11:35:57.346Z,97732.28
2022-08-31T11:39:15.347Z,97715.66
2022-08-31T11:41:46.949Z,97722.63
2022-08-31T11:44:34.196Z,97717.09
2022-08-31T11:47:37.942Z,97706.75
2022-08-31T11:50:32.809Z,97701.53
2022-08-31T11:53:18.251Z,97714.34
2022-08-31T11:55:51.990Z,97713.06
2022-08-31T11:58:26.662Z,97716.53
2022-08-31T12:01:27.108Z,97717.47
2022-08-31T12:04:03.880Z,97712.59
2022-08-31T12:06:37.298Z,97717.28
2022-08-31T12:09:46.044Z,97720.31
2022-08-31T12:12:51.362Z,97719.19
2022-08-31T12:15:50.124Z,97719.38
2022-08-31T12:19:06.864Z,97715.78
2022-08-31T12:22:17.365Z,97708.81
2022-08-31T12:25:11.711Z,97713.09
2022-08-31T12:28:03.699Z,97710.97
2022-08-31T12:30:31.102Z,97710.28
2022-08-31T12:33:18.015Z,97703.25
2022-08-31T12:35:49.598Z,97706.94
2022-08-31T12:38:23.908Z,97709.38
2022-08-31T12:40:57.535Z,97716.03
2022-08-31T12:43:46.709Z,97710.09
2022-08-31T12:46:49.164Z,97704.72
2022-08-31T12:49:32.428Z,97708.19
2022-08-31T12:52:35.196Z,97699.72
2022-08-31T12:55:37.915Z,97708.41
2022-08-31T12:58:38.956Z,97706.59
2022-08-31T13:01:13.957Z,97715.00
2022-08-31T13:03:52.647Z,97698.28
2022-08-31T13:06:37.041Z,97707.84
2022-08-31T13:09:06.451Z,97714.22
2022-08-31T13:11:44.279Z,97713.47
2022-08-31T13:14:43.497Z,97708.31
2022-08-31T13:17:22.094Z,97710.66
2022-08-31T13:19:56.812Z,97708.41
2022-08-31T13:22:32.580Z,97699.81
2022-08-31T13:25:39.537Z,97698.75
2022-08-31T13:28:14.044Z,97703.56
2022-08-31T13:30:55.355Z,97705.69
2022-08-31T13:33:31.334Z,97705.69
2022-08-31T13:36:06.383Z,97702.97
2022-08-31T13:38:40.298Z,97701.88
2022-08-31T13:41:17.301Z,97717.53
2022-08-31T13:44:03.615Z,97717.00
2022-08-31T13:46:49.790Z,97709.44
2022-08-31T13:49:35.425Z,97710.84
2022-08-31T13:52:17.817Z,97710.84
2022-08-31T13:54:56.784Z,97712.09
2022-08-31T13:57:28.582Z,97717.88
2022-08-31T14:00:41.380Z,97716.75
2022-08-31T14:03:49.519Z,97717.50
2022-08-31T14:06:34.878Z,97707.00
2022-08-31T14:09:17.129Z,97699.44
2022-08-31T14:12:05.437Z,97705.56
2022-08-31T14:14:43.401Z,97707.94
2022-08-31T14:17:16.394Z,97695.41
2022-08-31T14:19:45.266Z,97697.97
2022-08-31T14:22:16.485Z,97706.44
2022-08-31T14:24:44.195Z,97700.75
2022-08-31T14:27:12.511Z,97705.78
2022-08-31T14:29:42.143Z,97691.03
2022-08-31T14:32:09.599Z,97698.25
2022-08-31T14:34:49.310Z,97685.78
2022-08-31T14:37:30.114Z,97695.59
2022-08-31T14:40:05.550Z,97691.28
2022-08-31T14:42:38.541Z,97690.28
2022-08-31T14:45:18.694Z,97685.53
2022-08-31T14:47:48.155Z,97696.47
2022-08-31T14:50:21.562Z,97695.34
2022-08-31T14:52:55.135Z,97689.66
2022-08-31T14:55:24.905Z,97695.41
2022-08-31T14:57:59.941Z,97691.03
2022-08-31T15:00:31.856Z,97694.66
2022-08-31T15:03:02.611Z,97691.16
2022-08-31T15:05:30.055Z,97688.81
2022-08-31T15:07:57.691Z,97685.09
2022-08-31T15:10:26.270Z,97681.47
2022-08-31T15:12:54.327Z,97679.72
2022-08-31T15:15:22.131Z,97682.38
2022-08-31T15:17:52.137Z,97685.97
2022-08-31T15:20:21.624Z,97681.59
2022-08-31T15:22:49.992Z,97679.06
2022-08-31T15:25:18.969Z,97676.88
2022-08-31T15:27:46.761Z,97678.13
2022-08-31T15:30:19.748Z,97674.19
2022-08-31T15:32:48.914Z,97681.13
2022-08-31T15:35:23.533Z,97671.56
2022-08-31T15:37:56.562Z,97670.44
2022-08-31T15:40:28.974Z,97668.88
2022-08-31T15:42:57.334Z,97680.84
2022-08-31T15:45:29.934Z,97672.94
2022-08-31T15:48:19.324Z,97670.91
2022-08-31T15:50:56.385Z,97676.41
2022-08-31T15:53:27.402Z,97673.25
2022-08-31T15:55:54.947Z,97669.94
2022-08-31T15:58:25.137Z,97671.19
2022-08-31T16:00:52.932Z,97670.25
2022-08-31T16:03:20.287Z,97667.75
2022-08-31T16:05:48.195Z,97666.50
2022-08-31T16:08:15.649Z,97664.28
2022-08-31T16:10:47.155Z,97665.38
2022-08-31T16:13:16.331Z,97656.41
2022-08-31T16:15:51.457Z,97653.91
2022-08-31T16:18:22.452Z,97655.63
2022-08-31T16:20:52.003Z,97661.94
2022-08-31T16:23:21.054Z,97654.84
2022-08-31T16:25:49.450Z,97655.81
2022-08-31T16:28:21.036Z,97654.25
2022-08-31T16:30:51.284Z,97656.44
2022-08-31T16:33:19.867Z,97659.75
2022-08-31T16:35:48.816Z,97656.47
2022-08-31T16:38:16.909Z,97655.81
2022-08-31T16:40:44.801Z,97651.72
2022-08-31T16:43:12.302Z,97652.19
2022-08-31T16:45:41.576Z,97655.84
2022-08-31T16:48:29.831Z,97651.88
2022-08-31T16:50:58.353Z,97667.66
2022-08-31T16:53:26.003Z,97661.00
2022-08-31T16:55:53.477Z,97663.38
2022-08-31T16:58:40.912Z,97668.09
2022-08-31T17:01:17.195Z,97670.09
2022-08-31T17:03:50.952Z,97676.19
2022-08-31T17:06:19.428Z,97673.34
2022-08-31T17:08:47.242Z,97676.81
2022-08-31T17:11:28.602Z,97677.09
2022-08-31T17:13:58.604Z,97678.66
2022-08-31T17:16:38.970Z,97680.50
2022-08-31T17:19:11.442Z,97672.78
2022-08-31T17:21:51.969Z,97677.22
2022-08-31T17:24:26.807Z,97676.72
2022-08-31T17:26:59.775Z,97675.66
2022-08-31T17:29:34.113Z,97673.44
2022-08-31T17:32:14.303Z,97674.69
2022-08-31T17:34:43.230Z,97682.06
2022-08-31T17:37:15.321Z,97679.19
2022-08-31T17:39:44.908Z,97687.50
2022-08-31T17:42:16.066Z,97687.13
2022-08-31T17:44:48.196Z,97691.06
2022-08-31T17:47:16.686Z,97697.66
2022-08-31T17:49:46.731Z,97693.50
2022-08-31T17:52:14.910Z,97696.28
2022-08-31T17:54:43.396Z,97702.28
2022-08-31T17:57:15.005Z,97698.22
2022-08-31T17:59:49.284Z,97698.81
2022-08-31T18:02:32.734Z,97701.00
2022-08-31T18:05:02.450Z,97704.16
2022-08-31T18:07:30.242Z,97709.19
2022-08-31T18:09:57.927Z,97710.47
2022-08-31T18:12:25.934Z,97709.34
2022-08-31T18:14:54.198Z,97711.50
2022-08-31T18:17:22.526Z,97708.06
2022-08-31T18:19:50.864Z,97712.59
2022-08-31T18:22:19.844Z,97715.09
2022-08-31T18:24:47.189Z,97721.31
2022-08-31T18:27:17.814Z,97719.34
2022-08-31T18:29:45.706Z,97721.31
2022-08-31T18:32:13.786Z,97722.56
2022-08-31T18:34:47.598Z,97723.78
2022-08-31T18:37:21.103Z,97720.03
2022-08-31T18:40:08.495Z,97722.41
2022-08-31T18:42:56.822Z,97714.50
2022-08-31T18:45:26.902Z,97716.34
2022-08-31T18:50:47.500Z,97715.63
2022-08-31T18:53:27.579Z,97713.72
2022-08-31T18:56:08.956Z,97719.84
2022-08-31T18:58:38.202Z,97714.50
2022-08-31T19:01:10.432Z,97718.09
2022-08-31T19:03:39.709Z,97713.72
2022-08-31T19:06:08.491Z,97716.28
2022-08-31T19:08:35.989Z,97717.47
2022-08-31T19:11:07.501Z,97720.38
2022-08-31T19:13:35.437Z,97717.00
2022-08-31T19:16:14.812Z,97713.38
2022-08-31T19:18:44.934Z,97706.69
2022-08-31T19:21:23.953Z,97709.66
2022-08-31T19:23:52.027Z,97720.22
2022-08-31T19:26:41.215Z,97706.00
2022-08-31T19:29:14.376Z,97712.63
2022-08-31T19:31:46.044Z,97710.31
2022-08-31T19:34:18.182Z,97703.47
2022-08-31T19:36:49.406Z,97695.97
2022-08-31T19:39:23.018Z,97705.50
2022-08-31T19:42:00.391Z,97698.19
2022-08-31T19:44:28.288Z,97702.31
2022-08-31T19:46:58.135Z,97703.88
2022-08-31T19:49:27.979Z,97708.88
2022-08-31T19:52:03.629Z,97706.50
2022-08-31T19:54:35.323Z,97708.28
2022-08-31T19:57:03.452Z,97708.78
2022-08-31T19:59:30.920Z,97709.09
2022-08-31T20:01:59.733Z,97710.97
2022-08-31T20:04:29.767Z,97708.31
2022-08-31T20:06:57.949Z,97707.03
2022-08-31T20:09:27.717Z,97716.50
2022-08-31T20:11:57.047Z,97707.81
2022-08-31T20:14:24.450Z,97709.00
2022-08-31T20:16:52.408Z,97713.06
2022-08-31T20:19:25.075Z,97712.44
2022-08-31T20:22:08.060Z,97708.88
2022-08-31T20:24:43.650Z,97703.06
2022-08-31T20:27:18.698Z,97705.25
2022-08-31T20:29:48.220Z,97703.16
2022-08-31T20:32:15.811Z,97699.38
2022-08-31T20:34:44.813Z,97695.84
2022-08-31T20:37:13.123Z,97709.56
2022-08-31T20:39:42.095Z,97711.22
2022-08-31T20:42:09.676Z,97705.69
2022-08-31T20:44:38.128Z,97705.22
2022-08-31T20:47:27.730Z,97709.03
2022-08-31T20:49:59.044Z,97710.03
2022-08-31T20:52:32.953Z,97712.63
2022-08-31T20:55:03.855Z,97714.53
2022-08-31T20:57:36.172Z,97717.41
2022-08-31T21:00:06.664Z,97723.00
2022-08-31T21:02:34.875Z,97716.31
2022-08-31T21:07:52.862Z,97723.31
2022-08-31T21:10:37.984Z,97721.59
2022-08-31T21:13:12.511Z,97722.47
2022-08-31T21:15:47.115Z,97720.91
2022-08-31T21:18:17.831Z,97716.22
2022-08-31T21:20:46.510Z,97717.22
2022-08-31T21:23:14.050Z,97730.13
2022-08-31T21:25:45.198Z,97724.91
2022-08-31T21:28:17.437Z,97723.88
2022-08-31T21:30:47.199Z,97718.47
2022-08-31T21:33:14.828Z,97719.97
2022-08-31T21:35:42.242Z,97717.69
2022-08-31T21:38:12.201Z,97720.44
2022-08-31T21:40:48.637Z,97720.78
2022-08-31T21:43:16.114Z,97717.56
2022-08-31T21:45:43.677Z,97717.03
2022-08-31T21:48:11.095Z,97717.34
2022-08-31T21:50:38.682Z,97715.25
2022-08-31T21:53:06.121Z,97716.56
2022-08-31T21:55:38.587Z,97717.13
2022-08-31T21:58:05.937Z,97719.22
2022-08-31T22:00:34.598Z,97718.22
2022-08-31T22:03:02.618Z,97712.09
2022-08-31T22:05:33.016Z,97715.63
2022-08-31T22:08:01.725Z,97713.50
2022-08-31T22:10:30.589Z,97711.91
2022-08-31T22:12:58.534Z,97710.59
2022-08-31T22:15:27.237Z,97704.50
2022-08-31T22:18:17.884Z,97706.59
2022-08-31T22:20:43.325Z,97720.19
2022-08-31T22:23:11.552Z,97716.53
2022-08-31T22:25:39.036Z,97717.31
2022-08-31T22:28:07.464Z,97711.88
2022-08-31T22:30:36.454Z,97710.56
2022-08-31T22:33:04.601Z,97712.16
2022-08-31T22:35:31.998Z,97713.50
2022-08-31T22:37:59.346Z,97707.09
2022-08-31T22:40:27.723Z,97710.06
2022-08-31T22:42:55.262Z,97710.84
2022-08-31T22:45:24.137Z,97711.22
2022-08-31T22:47:51.447Z,97709.31
2022-08-31T22:50:18.856Z,97702.50
2022-08-31T22:52:46.624Z,97704.44
2022-08-31T22:55:13.998Z,97707.06
2022-08-31T22:57:41.540Z,97706.13
2022-08-31T23:00:13.234Z,97700.47
2022-08-31T23:02:47.615Z,97711.03
2022-08-31T23:05:16.539Z,97705.44
2022-08-31T23:07:44.421Z,97696.03
2022-08-31T23:10:17.070Z,97698.13
2022-08-31T23:12:47.645Z,97700.19
2022-08-31T23:15:15.565Z,97693.50
2022-08-31T23:17:51.377Z,97693.50
2022-08-31T23:20:24.573Z,97693.22
2022-08-31T23:22:55.150Z,97696.38
2022-08-31T23:25:24.473Z,97695.34
2022-08-31T23:27:52.338Z,97688.19
2022-08-31T23:30:22.527Z,97697.19
2022-08-31T23:32:50.644Z,97698.69
2022-08-31T23:35:18.786Z,97695.16
2022-08-31T23:37:47.192Z,97691.72
2022-08-31T23:40:16.075Z,97698.63
2022-08-31T23:42:43.623Z,97693.56
2022-08-31T23:45:12.834Z,97689.47
2022-08-31T23:47:40.545Z,97698.75
2022-08-31T23:50:09.971Z,97687.38
2022-08-31T23:52:41.676Z,97682.69
2022-08-31T23:55:11.239Z,97694.63
2022-08-31T23:57:39.573Z,97685.41
